Time;durP1;ratioP1;P1;durP2;ratioP2;P2;SDS_P1;SDS_P2;PMS_P1;PMS_P2;Temp;Humidity;BMP_temperature;BMP_pressure;BME280_temperature;BME280_humidity;BME280_pressure;Samples;Min_cycle;Max_cycle;Signal;HPM_P1;HPM_P2
2022/03/03 00:00:09;;;;;;;60.90;29.35;;;0.20;99.90;;;;;;6100524;23;20017;-80
2022/03/03 00:02:35;;;;;;;68.47;31.05;;;0.20;99.90;;;;;;6125428;23;20030;-80
2022/03/03 00:05:02;;;;;;;56.22;29.70;;;0.10;99.90;;;;;;6101181;23;20013;-80
2022/03/03 00:07:28;;;;;;;61.88;30.02;;;1.20;99.90;;;;;;6101052;23;20380;-80
2022/03/03 00:09:53;;;;;;;58.40;30.23;;;0.10;99.90;;;;;;6100833;23;20053;-80
2022/03/03 00:12:20;;;;;;;61.35;29.45;;;0.10;99.90;;;;;;6150118;23;20524;-80
2022/03/03 00:14:45;;;;;;;59.45;28.80;;;0.10;99.90;;;;;;6125102;23;20056;-80
2022/03/03 00:17:12;;;;;;;55.72;28.02;;;0.00;99.90;;;;;;6150170;23;20465;-80
2022/03/03 00:19:38;;;;;;;62.63;29.73;;;0.00;99.90;;;;;;6100827;23;20040;-80
2022/03/03 00:22:03;;;;;;;61.80;28.75;;;0.00;99.90;;;;;;6125582;23;20017;-80
2022/03/03 00:24:29;;;;;;;63.58;29.45;;;-0.10;99.90;;;;;;6125079;23;20445;-80
2022/03/03 00:26:55;;;;;;;59.55;29.08;;;-0.10;99.90;;;;;;6100670;23;20734;-80
2022/03/03 00:29:21;;;;;;;53.72;26.50;;;-0.10;99.90;;;;;;6124941;23;20017;-80
2022/03/03 00:31:47;;;;;;;59.17;29.00;;;-0.10;99.90;;;;;;6076039;23;20036;-80
2022/03/03 00:34:13;;;;;;;53.40;27.48;;;-0.20;99.90;;;;;;6048153;23;20053;-80
2022/03/03 00:36:40;;;;;;;52.85;27.08;;;-0.20;99.90;;;;;;6024660;23;20065;-80
2022/03/03 00:39:06;;;;;;;58.15;28.67;;;-0.20;99.90;;;;;;6095747;23;20153;-80
2022/03/03 00:41:32;;;;;;;60.92;29.35;;;0.20;99.90;;;;;;6096047;23;20077;-80
2022/03/03 00:43:58;;;;;;;61.05;29.40;;;-0.20;99.90;;;;;;6071944;23;20112;-80
2022/03/03 00:46:26;;;;;;;67.20;29.88;;;-0.30;99.90;;;;;;6071869;23;20053;-80
2022/03/03 00:48:54;;;;;;;63.38;29.95;;;-0.30;99.90;;;;;;6095699;23;20049;-80
2022/03/03 00:51:21;;;;;;;54.53;28.13;;;-0.30;99.90;;;;;;6048381;23;20096;-80
2022/03/03 00:53:47;;;;;;;58.38;28.85;;;-0.30;99.90;;;;;;6095749;23;20022;-80
2022/03/03 00:56:13;;;;;;;60.20;29.23;;;-0.30;99.90;;;;;;6071639;23;20032;-80
2022/03/03 00:58:39;;;;;;;55.65;28.23;;;-0.30;99.90;;;;;;6095549;23;20029;-81
2022/03/03 01:01:05;;;;;;;60.15;29.55;;;-0.40;99.90;;;;;;6095545;23;20449;-80
2022/03/03 01:03:31;;;;;;;59.75;29.23;;;-0.40;99.90;;;;;;6071783;23;20010;-80
2022/03/03 01:05:57;;;;;;;59.83;29.50;;;-0.40;99.90;;;;;;6048015;23;20014;-81
2022/03/03 01:08:22;;;;;;;68.10;30.38;;;0.30;99.90;;;;;;6071956;23;20022;-80
2022/03/03 01:10:48;;;;;;;60.08;29.60;;;-0.10;99.90;;;;;;6096020;23;20022;-81
2022/03/03 01:13:15;;;;;;;61.63;31.27;;;-0.50;99.90;;;;;;6047953;23;20492;-81
2022/03/03 01:15:41;;;;;;;63.22;29.70;;;-0.50;99.90;;;;;;6071816;23;20101;-80
2022/03/03 01:18:06;;;;;;;60.65;30.45;;;-0.50;99.90;;;;;;6095093;23;20409;-80
2022/03/03 01:20:32;;;;;;;61.83;30.27;;;-0.50;99.90;;;;;;6095531;23;20658;-80
2022/03/03 01:22:58;;;;;;;63.80;30.13;;;-0.50;99.90;;;;;;6071673;23;20469;-81
2022/03/03 01:25:24;;;;;;;64.80;29.60;;;-0.50;99.90;;;;;;6071238;23;20013;-80
2022/03/03 01:27:50;;;;;;;59.95;31.23;;;-0.50;99.90;;;;;;6048380;23;20490;-80
2022/03/03 01:30:15;;;;;;;60.67;29.77;;;-0.50;99.90;;;;;;6094895;23;20022;-80
2022/03/03 01:32:41;;;;;;;59.95;29.90;;;-0.60;99.90;;;;;;6082849;23;20022;-80
2022/03/03 01:35:07;;;;;;;56.60;28.42;;;-0.50;99.90;;;;;;6100139;23;20018;-80
2022/03/03 01:37:33;;;;;;;60.05;28.77;;;-0.60;99.90;;;;;;6124838;23;20014;-80
2022/03/03 01:39:59;;;;;;;65.75;29.92;;;-0.60;99.90;;;;;;6100083;23;20101;-81
2022/03/03 01:42:25;;;;;;;59.03;29.75;;;-0.60;99.90;;;;;;6124841;23;20096;-80
2022/03/03 01:44:51;;;;;;;59.17;28.75;;;-0.60;99.90;;;;;;6124631;23;20370;-80
2022/03/03 01:47:22;;;;;;;56.88;26.95;;;-0.60;99.90;;;;;;6149234;23;20022;-81
2022/03/03 01:49:50;;;;;;;60.50;28.25;;;-0.70;99.90;;;;;;6100615;23;20079;-80
2022/03/03 01:52:16;;;;;;;59.67;27.73;;;-0.70;99.90;;;;;;6124791;23;20381;-81
2022/03/03 01:54:43;;;;;;;56.15;28.50;;;-0.80;99.90;;;;;;6076158;23;20128;-80
2022/03/03 01:57:09;;;;;;;59.17;29.38;;;-0.80;99.90;;;;;;6124923;23;20021;-80
2022/03/03 01:59:36;;;;;;;58.42;28.35;;;-0.40;99.90;;;;;;6100001;23;20036;-80
2022/03/03 02:02:05;;;;;;;63.20;29.77;;;-0.70;99.90;;;;;;6124807;23;20077;-80
2022/03/03 02:04:32;;;;;;;55.50;29.10;;;-0.90;99.90;;;;;;6124388;23;20017;-80
2022/03/03 02:06:58;;;;;;;58.65;28.75;;;-0.90;99.90;;;;;;6124856;23;20369;-80
2022/03/03 02:09:25;;;;;;;61.65;27.92;;;-0.90;99.90;;;;;;6124656;23;20029;-80
2022/03/03 02:11:51;;;;;;;56.03;27.17;;;-1.00;99.90;;;;;;6076153;23;20028;-80
2022/03/03 02:14:18;;;;;;;61.20;28.65;;;-1.00;99.90;;;;;;6099773;23;20040;-80
2022/03/03 02:16:44;;;;;;;58.20;29.90;;;-1.00;99.90;;;;;;6100227;23;20122;-81
2022/03/03 02:19:17;;;;;;;52.65;26.77;;;-1.00;99.90;;;;;;6075965;23;20073;-80
2022/03/03 02:21:47;;;;;;;55.55;27.40;;;-0.20;99.90;;;;;;6123939;23;20049;-80
2022/03/03 02:24:14;;;;;;;50.45;27.35;;;-1.00;99.90;;;;;;6100090;23;20014;-80
2022/03/03 02:26:41;;;;;;;56.55;27.08;;;-1.10;99.90;;;;;;6099836;23;20134;-80
2022/03/03 02:29:07;;;;;;;54.50;26.83;;;-0.90;99.90;;;;;;6124608;23;20056;-80
2022/03/03 02:31:32;;;;;;;52.83;25.02;;;0.20;99.90;;;;;;6100919;23;20017;-80
2022/03/03 02:33:58;;;;;;;50.83;26.15;;;-1.10;99.90;;;;;;6101650;23;20036;-80
2022/03/03 02:36:28;;;;;;;53.50;26.98;;;-1.10;99.90;;;;;;6078153;23;20105;-80
2022/03/03 02:39:00;;;;;;;53.92;27.08;;;-1.20;99.90;;;;;;6101682;23;20073;-80
2022/03/03 02:41:27;;;;;;;52.83;26.00;;;-1.00;99.90;;;;;;6126541;23;20025;-80
2022/03/03 02:43:53;;;;;;;53.25;26.42;;;-1.20;99.90;;;;;;6126728;23;20084;-80
2022/03/03 02:46:19;;;;;;;53.47;27.50;;;-1.20;99.90;;;;;;6101996;23;20088;-80
2022/03/03 02:48:45;;;;;;;48.17;25.23;;;-1.20;99.90;;;;;;6102434;23;20025;-80
2022/03/03 02:51:12;;;;;;;53.58;26.17;;;-1.20;99.90;;;;;;6078174;23;20108;-81
2022/03/03 02:53:37;;;;;;;50.80;26.30;;;-0.50;99.90;;;;;;6078244;23;20021;-80
2022/03/03 02:56:04;;;;;;;51.92;26.90;;;-1.30;99.90;;;;;;6126056;23;20021;-80
2022/03/03 02:58:31;;;;;;;53.33;27.45;;;-1.20;99.90;;;;;;6102384;23;20021;-80
2022/03/03 03:00:57;;;;;;;54.72;25.77;;;-1.30;99.90;;;;;;6102044;23;20020;-80
2022/03/03 03:03:23;;;;;;;52.90;26.13;;;-1.20;99.90;;;;;;6102680;23;20351;-81
2022/03/03 03:05:49;;;;;;;47.20;24.88;;;-1.30;99.90;;;;;;6126721;23;20022;-80
2022/03/03 03:08:15;;;;;;;48.83;25.52;;;-1.30;99.90;;;;;;6126419;23;20479;-80
2022/03/03 03:10:41;;;;;;;55.35;26.67;;;-1.30;99.90;;;;;;6126560;23;20032;-81
2022/03/03 03:13:11;;;;;;;52.72;26.58;;;-1.30;99.90;;;;;;6101823;23;20068;-81
2022/03/03 03:15:37;;;;;;;48.17;25.55;;;-1.30;99.90;;;;;;6102123;23;20022;-80
2022/03/03 03:18:09;;;;;;;54.50;27.95;;;-1.40;99.90;;;;;;6125934;23;20539;-81
2022/03/03 03:20:36;;;;;;;55.53;26.42;;;-1.40;99.90;;;;;;6102238;23;20028;-80
2022/03/03 03:23:02;;;;;;;50.90;27.65;;;-1.40;99.90;;;;;;6126480;23;20021;-81
2022/03/03 03:25:28;;;;;;;54.67;27.38;;;-1.40;99.90;;;;;;6101792;23;20028;-80
2022/03/03 03:27:54;;;;;;;53.33;27.90;;;-1.40;99.90;;;;;;6126673;23;20081;-80
2022/03/03 03:30:19;;;;;;;51.10;26.10;;;-1.30;99.90;;;;;;6125746;23;20048;-80
2022/03/03 03:32:45;;;;;;;61.20;29.77;;;-1.40;99.90;;;;;;6098564;23;20054;-80
2022/03/03 03:35:11;;;;;;;59.55;27.10;;;-1.40;99.90;;;;;;6049289;23;20014;-80
2022/03/03 03:37:36;;;;;;;59.15;28.85;;;-1.40;99.90;;;;;;6096515;23;20029;-80
2022/03/03 03:40:04;;;;;;;58.60;28.40;;;-1.40;99.90;;;;;;6049177;23;20029;-80
2022/03/03 03:42:30;;;;;;;51.45;27.30;;;-1.40;99.90;;;;;;6072594;23;20021;-81
2022/03/03 03:44:56;;;;;;;60.47;26.98;;;-0.20;99.90;;;;;;6049026;23;20458;-80
2022/03/03 03:47:21;;;;;;;58.17;28.52;;;-1.50;99.90;;;;;;6025673;23;20014;-80
2022/03/03 03:49:47;;;;;;;63.83;29.63;;;-1.50;99.90;;;;;;6049321;23;20454;-81
2022/03/03 03:52:13;;;;;;;57.55;29.15;;;-1.50;99.90;;;;;;6072601;23;20021;-80
2022/03/03 03:54:38;;;;;;;53.95;26.92;;;-1.50;99.90;;;;;;6049160;23;20022;-81
2022/03/03 03:57:04;;;;;;;57.38;29.27;;;-1.50;99.90;;;;;;6048982;23;20014;-80
2022/03/03 03:59:30;;;;;;;51.35;25.70;;;-1.50;99.90;;;;;;6072868;23;20018;-80
2022/03/03 04:01:56;;;;;;;59.28;27.48;;;-1.60;99.90;;;;;;6025318;23;20024;-80
2022/03/03 04:04:22;;;;;;;51.17;26.58;;;-1.60;99.90;;;;;;6096664;23;20014;-81
2022/03/03 04:06:48;;;;;;;58.85;27.88;;;-1.60;99.90;;;;;;6049032;23;20025;-80
2022/03/03 04:09:14;;;;;;;55.00;26.67;;;-1.60;99.90;;;;;;6072693;23;20623;-80
2022/03/03 04:11:39;;;;;;;52.33;27.05;;;-1.60;99.90;;;;;;6049269;23;20028;-80
2022/03/03 04:14:05;;;;;;;55.50;27.27;;;-0.30;99.90;;;;;;6025288;23;20018;-80
2022/03/03 04:16:31;;;;;;;50.28;26.17;;;-1.40;99.90;;;;;;6049395;23;20021;-80
2022/03/03 04:18:57;;;;;;;50.70;26.75;;;-1.60;99.90;;;;;;6072868;23;20046;-81
2022/03/03 04:21:22;;;;;;;55.33;27.17;;;-1.60;99.90;;;;;;6049135;23;20018;-80
2022/03/03 04:23:48;;;;;;;55.20;25.85;;;-1.60;99.90;;;;;;6072957;23;20411;-80
2022/03/03 04:26:15;;;;;;;49.15;26.73;;;-1.60;99.90;;;;;;6073112;23;20107;-80
2022/03/03 04:28:41;;;;;;;47.67;25.73;;;-1.60;99.90;;;;;;6049435;23;20018;-80
2022/03/03 04:31:07;;;;;;;50.15;26.40;;;-1.60;99.90;;;;;;6072292;23;20025;-80
2022/03/03 04:33:33;;;;;;;51.55;27.60;;;-1.60;99.90;;;;;;6038078;23;20017;-80
2022/03/03 04:35:59;;;;;;;50.83;26.30;;;-1.60;99.90;;;;;;6102231;23;20457;-80
2022/03/03 04:38:25;;;;;;;48.45;26.02;;;-1.60;99.90;;;;;;6126298;23;20535;-80
2022/03/03 04:40:51;;;;;;;43.33;25.23;;;-1.70;99.90;;;;;;6102208;23;20061;-80
2022/03/03 04:43:17;;;;;;;44.58;24.08;;;-1.70;99.90;;;;;;6126135;23;20025;-80
2022/03/03 04:45:44;;;;;;;42.80;24.25;;;-1.70;99.90;;;;;;6101986;23;20017;-80
2022/03/03 04:48:09;;;;;;;44.13;23.95;;;-1.70;99.90;;;;;;6101900;23;20017;-80
2022/03/03 04:50:35;;;;;;;44.00;23.88;;;-1.70;99.90;;;;;;6101969;23;20089;-80
2022/03/03 04:53:01;;;;;;;46.92;23.48;;;-1.70;99.90;;;;;;6101765;23;20014;-80
2022/03/03 04:55:26;;;;;;;46.30;23.55;;;-1.70;99.90;;;;;;6126042;23;20104;-80
2022/03/03 04:57:52;;;;;;;46.40;24.75;;;-1.70;99.90;;;;;;6101614;23;20018;-80
2022/03/03 05:00:18;;;;;;;47.03;24.73;;;-1.70;99.90;;;;;;6101949;23;20021;-80
2022/03/03 05:02:44;;;;;;;41.75;24.05;;;-1.70;99.90;;;;;;6128084;23;20021;-80
2022/03/03 05:05:10;;;;;;;44.17;23.17;;;-1.80;99.90;;;;;;6127867;23;20017;-79
2022/03/03 05:07:35;;;;;;;41.80;22.70;;;-1.80;99.90;;;;;;6127644;23;20483;-79
2022/03/03 05:10:02;;;;;;;40.35;22.75;;;-1.80;99.90;;;;;;6127563;23;20464;-80
2022/03/03 05:12:28;;;;;;;47.60;24.23;;;-2.00;99.90;;;;;;6125900;23;20052;-80
2022/03/03 05:14:53;;;;;;;44.60;22.55;;;-1.80;99.90;;;;;;6126131;23;20472;-80
2022/03/03 05:17:19;;;;;;;44.45;23.13;;;-1.80;99.90;;;;;;6101272;23;20158;-80
2022/03/03 05:19:45;;;;;;;44.83;23.90;;;-1.80;99.90;;;;;;6126076;23;20356;-80
2022/03/03 05:22:11;;;;;;;42.45;22.65;;;-1.80;99.90;;;;;;6107372;23;20025;-80
2022/03/03 05:24:38;;;;;;;39.28;22.42;;;-1.80;99.90;;;;;;6114584;23;20017;-80
2022/03/03 05:27:05;;;;;;;45.13;23.13;;;-1.80;99.90;;;;;;6130200;23;20017;-80
2022/03/03 05:29:30;;;;;;;39.58;21.92;;;-1.90;99.90;;;;;;6101750;23;20452;-80
2022/03/03 05:31:58;;;;;;;43.72;22.55;;;-1.90;99.90;;;;;;6077237;23;20053;-80
2022/03/03 05:34:25;;;;;;;41.30;22.92;;;-1.90;99.90;;;;;;6100768;23;20032;-80
2022/03/03 05:36:52;;;;;;;43.13;22.90;;;-1.90;99.90;;;;;;6100555;23;20024;-80
2022/03/03 05:39:18;;;;;;;43.63;21.45;;;-1.90;99.90;;;;;;6100765;23;20018;-80
2022/03/03 05:41:44;;;;;;;40.70;22.38;;;-1.90;99.90;;;;;;6100368;23;20017;-80
2022/03/03 05:44:14;;;;;;;40.65;22.50;;;-2.00;99.90;;;;;;6100876;23;20021;-80
2022/03/03 05:46:42;;;;;;;43.00;22.15;;;-2.00;99.90;;;;;;6125084;23;20075;-80
2022/03/03 05:49:09;;;;;;;43.05;22.40;;;-2.00;99.90;;;;;;6124851;23;20651;-80
2022/03/03 05:51:35;;;;;;;36.38;22.98;;;-1.80;99.90;;;;;;6129682;23;20026;-80
2022/03/03 05:54:01;;;;;;;46.05;22.90;;;-2.10;99.90;;;;;;6099932;23;20024;-81
2022/03/03 05:56:32;;;;;;;38.10;21.73;;;-1.80;99.90;;;;;;6092227;23;20022;-81
2022/03/03 05:59:01;;;;;;;39.88;22.65;;;-2.20;99.90;;;;;;6121033;23;20010;-80
2022/03/03 06:01:28;;;;;;;36.72;22.52;;;-2.20;99.90;;;;;;6147342;23;20017;-80
2022/03/03 06:03:59;;;;;;;40.67;22.65;;;-1.70;99.90;;;;;;6148070;23;20017;-80
2022/03/03 06:06:31;;;;;;;46.42;24.58;;;-2.30;99.90;;;;;;6125284;23;20025;-80
2022/03/03 06:09:08;;;;;;;45.70;24.08;;;-2.30;99.90;;;;;;6125981;23;20022;-81
2022/03/03 06:11:40;;;;;;;38.65;22.70;;;-2.30;99.90;;;;;;6147095;23;20233;-81
2022/03/03 06:14:08;;;;;;;39.55;22.52;;;-2.40;99.90;;;;;;6140977;23;20065;-81
2022/03/03 06:16:39;;;;;;;47.70;24.95;;;-2.40;99.90;;;;;;6126737;23;20022;-81
2022/03/03 06:19:05;;;;;;;43.75;24.13;;;-2.40;99.90;;;;;;6101930;23;20337;-81
2022/03/03 06:21:30;;;;;;;43.45;23.80;;;-2.40;99.90;;;;;;6078074;23;20021;-81
2022/03/03 06:23:57;;;;;;;43.55;24.23;;;-2.40;99.90;;;;;;6126544;23;20193;-81
2022/03/03 06:26:22;;;;;;;38.33;21.90;;;-1.80;99.90;;;;;;6101428;23;20021;-81
2022/03/03 06:28:48;;;;;;;40.92;22.67;;;-2.30;99.90;;;;;;6126656;23;20743;-80
2022/03/03 06:31:15;;;;;;;45.38;23.65;;;-2.30;99.90;;;;;;6101711;23;20025;-80
2022/03/03 06:33:41;;;;;;;44.20;23.60;;;-2.30;99.90;;;;;;6126001;23;20096;-80
2022/03/03 06:36:07;;;;;;;44.40;23.92;;;-2.20;99.90;;;;;;6101815;23;20021;-80
2022/03/03 06:38:34;;;;;;;41.65;22.10;;;-2.30;99.90;;;;;;6102096;23;20081;-80
2022/03/03 06:41:01;;;;;;;41.88;22.98;;;-2.20;99.90;;;;;;6102111;23;20025;-80
2022/03/03 06:43:30;;;;;;;40.00;22.83;;;-2.20;99.90;;;;;;6126554;23;20483;-80
2022/03/03 06:45:56;;;;;;;41.83;21.60;;;-2.20;99.90;;;;;;6126417;23;20010;-81
2022/03/03 06:48:22;;;;;;;43.60;24.45;;;-2.20;99.90;;;;;;6126268;23;20039;-80
2022/03/03 06:50:51;;;;;;;49.78;22.88;;;-2.20;99.90;;;;;;6101861;23;20073;-80
2022/03/03 06:53:25;;;;;;;42.88;22.70;;;-2.20;99.90;;;;;;6126798;23;20096;-81
2022/03/03 06:55:53;;;;;;;53.53;23.70;;;-2.20;99.90;;;;;;6101685;23;20017;-80
2022/03/03 06:58:22;;;;;;;39.33;22.67;;;-2.20;99.90;;;;;;6130354;23;20018;-80
2022/03/03 07:00:52;;;;;;;42.78;23.00;;;-2.10;99.90;;;;;;6128330;23;20029;-80
2022/03/03 07:03:21;;;;;;;42.38;21.88;;;-2.10;99.90;;;;;;6108122;23;20048;-80
2022/03/03 07:05:46;;;;;;;41.10;21.70;;;-2.10;99.90;;;;;;6149644;23;20017;-81
2022/03/03 07:08:13;;;;;;;40.00;21.85;;;-1.30;99.90;;;;;;6124134;23;20024;-81
2022/03/03 07:10:39;;;;;;;41.67;22.77;;;-1.70;99.90;;;;;;6123550;23;20070;-80
2022/03/03 07:13:05;;;;;;;42.53;23.45;;;-2.00;99.90;;;;;;6124542;23;20021;-79
2022/03/03 07:15:34;;;;;;;41.72;23.15;;;-1.90;99.90;;;;;;6149272;23;20024;-80
2022/03/03 07:18:11;;;;;;;40.03;23.63;;;-1.90;99.90;;;;;;6126411;23;20014;-81
2022/03/03 07:21:05;;;;;;;39.17;22.05;;;-1.90;99.90;;;;;;6129461;23;20029;-80
2022/03/03 07:23:39;;;;;;;48.17;24.13;;;-1.80;99.90;;;;;;6082994;23;20092;-80
2022/03/03 07:26:08;;;;;;;43.10;23.77;;;-1.80;99.90;;;;;;6117507;23;20432;-80
2022/03/03 07:28:34;;;;;;;39.38;22.60;;;-1.70;99.90;;;;;;6141654;23;20049;-80
2022/03/03 07:31:02;;;;;;;38.17;21.88;;;-1.30;99.90;;;;;;6116901;23;20516;-79
2022/03/03 07:33:40;;;;;;;40.50;22.98;;;-1.60;99.90;;;;;;6117378;23;20056;-80
2022/03/03 07:36:09;;;;;;;42.08;23.27;;;-1.50;99.90;;;;;;6143293;23;20021;-79
2022/03/03 07:38:37;;;;;;;41.47;24.02;;;-1.40;99.90;;;;;;6121203;23;20021;-80
2022/03/03 07:41:03;;;;;;;42.63;24.02;;;-1.40;99.90;;;;;;6121629;23;20044;-80
2022/03/03 07:43:29;;;;;;;43.13;23.98;;;-1.30;99.90;;;;;;6147441;23;20013;-80
2022/03/03 07:45:55;;;;;;;40.10;22.73;;;-1.30;99.90;;;;;;6147752;23;20029;-81
2022/03/03 07:48:24;;;;;;;41.25;23.13;;;-1.00;99.90;;;;;;6156628;23;20064;-79
2022/03/03 07:50:50;;;;;;;44.38;24.83;;;-1.10;99.90;;;;;;6126697;23;20041;-79
2022/03/03 07:53:16;;;;;;;40.92;22.63;;;-1.00;99.90;;;;;;6150372;23;20017;-81
2022/03/03 07:55:47;;;;;;;39.22;22.75;;;-0.90;99.90;;;;;;6155410;23;20031;-81
2022/03/03 07:58:20;;;;;;;37.25;22.38;;;-0.80;99.90;;;;;;6146643;23;20013;-81
2022/03/03 08:00:51;;;;;;;39.42;22.58;;;-0.70;99.90;;;;;;6078631;23;20021;-81
2022/03/03 08:03:21;;;;;;;41.38;24.48;;;-0.50;99.90;;;;;;6127257;23;20373;-81
2022/03/03 08:05:53;;;;;;;44.20;23.85;;;0.20;99.90;;;;;;6127436;23;20140;-81
2022/03/03 08:08:25;;;;;;;38.15;21.98;;;0.70;99.90;;;;;;6127075;23;20393;-81
2022/03/03 08:11:03;;;;;;;36.20;21.77;;;1.40;99.90;;;;;;6126546;23;20104;-81
2022/03/03 08:13:30;;;;;;;35.00;19.95;;;1.60;99.90;;;;;;6101840;23;20017;-81
2022/03/03 08:15:57;;;;;;;39.20;21.83;;;1.70;99.90;;;;;;6126240;23;20028;-81
2022/03/03 08:18:31;;;;;;;42.55;23.95;;;2.10;99.90;;;;;;6101890;23;20018;-80
2022/03/03 08:20:58;;;;;;;34.08;21.63;;;2.70;99.90;;;;;;6102104;23;20093;-81
2022/03/03 08:23:26;;;;;;;33.55;20.70;;;3.60;99.90;;;;;;6077833;23;20048;-81
2022/03/03 08:25:54;;;;;;;36.65;20.92;;;4.20;99.90;;;;;;6078240;23;20024;-81
2022/03/03 08:28:23;;;;;;;33.10;21.67;;;4.80;99.90;;;;;;6101552;23;20064;-81
2022/03/03 08:31:00;;;;;;;30.88;20.55;;;4.40;99.90;;;;;;6101818;23;20013;-81
2022/03/03 08:33:52;;;;;;;33.80;21.10;;;4.60;99.90;;;;;;6102265;23;20647;-81
2022/03/03 08:36:25;;;;;;;34.35;21.00;;;4.90;99.90;;;;;;6126554;23;20484;-81
2022/03/03 08:38:52;;;;;;;32.33;19.67;;;5.00;99.90;;;;;;6101711;23;20094;-81
2022/03/03 08:41:22;;;;;;;31.20;20.15;;;5.00;99.90;;;;;;6101901;23;20028;-81
2022/03/03 08:43:52;;;;;;;31.70;20.65;;;4.80;99.90;;;;;;6125862;23;20018;-81
2022/03/03 08:46:25;;;;;;;30.92;20.02;;;4.70;99.90;;;;;;6150932;23;20326;-81
2022/03/03 08:48:52;;;;;;;31.13;20.60;;;4.70;99.90;;;;;;6101563;23;20386;-81
2022/03/03 08:51:19;;;;;;;35.13;20.60;;;5.30;99.90;;;;;;6077604;23;20361;-81
2022/03/03 08:53:46;;;;;;;32.45;20.55;;;4.90;99.90;;;;;;6101795;23;20017;-81
2022/03/03 08:56:12;;;;;;;28.52;19.30;;;5.10;99.90;;;;;;6101808;23;20021;-82
2022/03/03 08:58:38;;;;;;;31.25;19.67;;;5.00;99.90;;;;;;6125743;23;20028;-82
2022/03/03 09:01:04;;;;;;;31.20;20.95;;;5.40;99.90;;;;;;6126140;23;20021;-82
2022/03/03 09:03:30;;;;;;;29.23;20.45;;;6.00;99.90;;;;;;6077435;23;20010;-82
2022/03/03 09:05:56;;;;;;;31.60;19.98;;;7.00;99.90;;;;;;6150101;23;20665;-82
2022/03/03 09:08:23;;;;;;;26.92;18.58;;;7.90;99.90;;;;;;6150894;23;20051;-81
2022/03/03 09:10:49;;;;;;;26.23;18.20;;;8.70;99.90;;;;;;6126009;23;20040;-82
2022/03/03 09:13:16;;;;;;;25.15;18.15;;;8.90;99.90;;;;;;6101947;23;20040;-82
2022/03/03 09:15:42;;;;;;;25.23;17.38;;;9.20;99.10;;;;;;6101966;23;20159;-82
2022/03/03 09:18:08;;;;;;;25.85;17.95;;;9.80;99.90;;;;;;6149897;23;20045;-82
2022/03/03 09:20:35;;;;;;;28.88;18.77;;;10.40;99.10;;;;;;6101309;23;20022;-82
2022/03/03 09:23:01;;;;;;;25.85;17.95;;;10.70;97.80;;;;;;6125713;23;20014;-83
2022/03/03 09:25:27;;;;;;;24.27;17.75;;;10.80;96.20;;;;;;6101744;23;20017;-81
2022/03/03 09:27:53;;;;;;;24.80;17.92;;;11.40;96.00;;;;;;6077624;23;20096;-82
2022/03/03 09:30:19;;;;;;;24.00;17.42;;;11.40;94.40;;;;;;6101591;23;20022;-82
2022/03/03 09:32:45;;;;;;;25.13;17.83;;;11.90;93.70;;;;;;6101588;23;20018;-82
2022/03/03 09:35:11;;;;;;;26.55;17.42;;;11.80;91.80;;;;;;6073147;23;20081;-82
2022/03/03 09:37:37;;;;;;;25.08;17.67;;;12.20;92.00;;;;;;6096907;23;20028;-82
2022/03/03 09:40:04;;;;;;;24.38;17.33;;;12.30;90.50;;;;;;6049756;23;20025;-82
2022/03/03 09:42:33;;;;;;;24.30;17.13;;;12.60;88.50;;;;;;6099387;23;20093;-82
2022/03/03 09:45:00;;;;;;;21.15;16.92;;;12.80;88.50;;;;;;6051578;23;20354;-82
2022/03/03 09:47:26;;;;;;;21.23;16.08;;;13.10;85.70;;;;;;6051303;23;20406;-82
2022/03/03 09:49:52;;;;;;;21.25;16.58;;;13.10;83.70;;;;;;6075095;23;20022;-83
2022/03/03 09:52:19;;;;;;;21.42;15.68;;;13.30;82.00;;;;;;6050710;23;20014;-83
2022/03/03 09:54:51;;;;;;;19.83;15.35;;;13.40;80.20;;;;;;6074856;23;20014;-82
2022/03/03 09:57:17;;;;;;;20.40;15.77;;;13.40;76.40;;;;;;6098869;23;20025;-82
2022/03/03 09:59:46;;;;;;;19.45;14.85;;;13.70;79.80;;;;;;6051072;23;20025;-82
2022/03/03 10:02:12;;;;;;;22.55;15.07;;;13.60;76.20;;;;;;6098456;23;20018;-82
2022/03/03 10:04:38;;;;;;;22.50;15.95;;;13.90;76.40;;;;;;6074878;23;20480;-82
2022/03/03 10:07:06;;;;;;;21.60;15.55;;;14.20;74.50;;;;;;6074827;23;20049;-82
2022/03/03 10:09:33;;;;;;;19.55;15.55;;;14.70;73.40;;;;;;6074540;23;20021;-82
2022/03/03 10:12:04;;;;;;;19.25;15.93;;;14.30;69.50;;;;;;6074486;23;20022;-82
2022/03/03 10:14:36;;;;;;;20.33;16.13;;;14.90;69.20;;;;;;6074293;23;20018;-82
2022/03/03 10:17:04;;;;;;;21.60;15.95;;;14.90;69.00;;;;;;6074287;23;20100;-82
2022/03/03 10:19:30;;;;;;;20.98;15.88;;;14.90;68.20;;;;;;6098257;23;20022;-82
2022/03/03 10:21:56;;;;;;;21.60;16.48;;;15.00;66.50;;;;;;6075954;23;20129;-82
2022/03/03 10:24:28;;;;;;;19.55;15.75;;;15.30;67.80;;;;;;6074982;23;20621;-83
2022/03/03 10:26:57;;;;;;;22.67;15.60;;;15.50;67.30;;;;;;6100010;23;20022;-82
2022/03/03 10:29:23;;;;;;;19.95;15.35;;;15.40;66.60;;;;;;6076482;23;20026;-82
2022/03/03 10:31:54;;;;;;;17.70;15.02;;;15.50;66.00;;;;;;6076433;23;20018;-81
2022/03/03 10:34:31;;;;;;;22.05;16.23;;;15.60;65.70;;;;;;6096026;23;20021;-82
2022/03/03 10:36:56;;;;;;;18.15;14.27;;;15.80;65.20;;;;;;6127867;23;20105;-83
2022/03/03 10:39:22;;;;;;;19.27;15.48;;;16.00;65.20;;;;;;6102486;23;20782;-82
2022/03/03 10:41:53;;;;;;;19.55;15.10;;;16.30;64.80;;;;;;6126609;23;20028;-83
2022/03/03 10:44:29;;;;;;;18.85;15.35;;;16.30;65.10;;;;;;6102383;23;20453;-83
2022/03/03 10:47:08;;;;;;;21.33;15.25;;;16.50;62.70;;;;;;6127318;23;20056;-83
2022/03/03 10:49:36;;;;;;;20.70;14.52;;;16.60;62.30;;;;;;6130353;23;20018;-83
2022/03/03 10:52:24;;;;;;;17.38;13.70;;;16.60;61.80;;;;;;6127044;23;20056;-83
2022/03/03 10:54:53;;;;;;;18.20;14.02;;;16.00;59.60;;;;;;6128602;23;20049;-83
2022/03/03 10:57:40;;;;;;;18.08;14.02;;;15.90;61.90;;;;;;6105930;23;20021;-83
2022/03/03 11:00:16;;;;;;;17.55;14.45;;;16.20;60.60;;;;;;6128702;23;20049;-82
2022/03/03 11:02:46;;;;;;;20.40;14.32;;;16.40;61.00;;;;;;6104888;23;20024;-82
2022/03/03 11:05:13;;;;;;;17.70;14.55;;;16.40;61.00;;;;;;6129615;23;20018;-82
2022/03/03 11:07:44;;;;;;;18.85;14.10;;;16.00;61.10;;;;;;6128887;23;20094;-82
2022/03/03 11:10:19;;;;;;;19.95;14.43;;;15.60;60.20;;;;;;6103231;23;20022;-83
2022/03/03 11:12:45;;;;;;;21.00;14.13;;;15.00;60.50;;;;;;6126508;23;20017;-83
2022/03/03 11:15:12;;;;;;;18.73;13.27;;;15.10;61.10;;;;;;6102435;23;20326;-83
2022/03/03 11:17:39;;;;;;;19.60;14.48;;;15.30;60.90;;;;;;6102480;23;20027;-84
2022/03/03 11:20:07;;;;;;;21.42;15.40;;;15.60;61.70;;;;;;6126775;23;20046;-84
2022/03/03 11:22:34;;;;;;;19.73;14.90;;;15.50;61.80;;;;;;6127181;23;20294;-83
2022/03/03 11:25:05;;;;;;;20.33;14.35;;;15.40;61.40;;;;;;6078341;23;20006;-83
2022/03/03 11:27:36;;;;;;;18.63;14.52;;;15.40;61.80;;;;;;6102443;23;20017;-84
2022/03/03 11:30:20;;;;;;;19.85;14.05;;;15.50;60.80;;;;;;6126351;23;20048;-84
2022/03/03 11:33:06;;;;;;;17.88;13.52;;;15.00;59.10;;;;;;6102466;23;20097;-84
2022/03/03 11:35:52;;;;;;;19.67;13.90;;;14.60;60.20;;;;;;6097977;23;20045;-83
2022/03/03 11:38:20;;;;;;;18.63;14.02;;;14.30;60.10;;;;;;6066868;23;20022;-83
2022/03/03 11:40:51;;;;;;;17.60;13.70;;;13.90;62.60;;;;;;6064201;23;20060;-86
2022/03/03 11:43:17;;;;;;;17.52;13.77;;;13.50;62.40;;;;;;6066463;23;20449;-84
2022/03/03 11:45:55;;;;;;;17.40;12.82;;;13.20;61.70;;;;;;6065748;23;20088;-84
2022/03/03 11:48:22;;;;;;;17.15;12.73;;;12.90;62.50;;;;;;6090285;23;20014;-83
2022/03/03 11:50:52;;;;;;;16.25;11.95;;;12.70;63.60;;;;;;6067024;23;20101;-84
2022/03/03 11:53:25;;;;;;;16.92;11.65;;;12.50;63.00;;;;;;6066837;23;20025;-84
2022/03/03 11:56:03;;;;;;;17.13;12.93;;;12.40;63.50;;;;;;6091242;23;20100;-84
2022/03/03 11:58:41;;;;;;;15.73;11.65;;;12.10;62.50;;;;;;6074632;23;20021;-83
2022/03/03 12:01:10;;;;;;;18.77;12.23;;;12.10;62.90;;;;;;6042022;23;20057;-83
2022/03/03 12:04:00;;;;;;;17.40;12.20;;;12.10;63.70;;;;;;6065630;23;20058;-83
2022/03/03 12:06:47;;;;;;;15.15;11.80;;;12.00;62.40;;;;;;6065723;23;20097;-85
2022/03/03 12:09:30;;;;;;;19.17;13.43;;;12.10;64.00;;;;;;6089799;23;20461;-83
2022/03/03 12:12:13;;;;;;;19.48;13.57;;;12.10;65.50;;;;;;6066427;23;20092;-83
2022/03/03 12:14:54;;;;;;;17.83;12.38;;;12.10;64.90;;;;;;6092217;23;20070;-84
2022/03/03 12:17:56;;;;;;;17.52;12.00;;;12.00;63.70;;;;;;6073976;23;20022;-83
2022/03/03 12:20:30;;;;;;;20.15;12.65;;;12.00;63.70;;;;;;6001882;23;20339;-83
2022/03/03 12:23:13;;;;;;;15.95;11.95;;;11.80;63.60;;;;;;6091354;23;20029;-83
2022/03/03 12:25:47;;;;;;;14.32;11.00;;;11.80;63.70;;;;;;6092133;23;20467;-83
2022/03/03 12:28:24;;;;;;;18.55;12.95;;;11.80;63.50;;;;;;6067717;23;20026;-84
2022/03/03 12:30:52;;;;;;;16.95;12.23;;;11.70;64.50;;;;;;6073270;23;20022;-83
2022/03/03 12:33:29;;;;;;;16.15;11.52;;;11.80;64.70;;;;;;6074051;23;20014;-84